createdAt,value
2018-09-05T00:01:49.471Z,15.97
2018-09-05T00:04:17.629Z,15.30
2018-09-05T00:06:45.782Z,17.77
2018-09-05T00:09:13.927Z,19.97
2018-09-05T00:11:42.121Z,21.90
2018-09-05T00:14:10.519Z,22.37
2018-09-05T00:16:38.866Z,22.30
2018-09-05T00:19:07.015Z,18.13
2018-09-05T00:21:35.238Z,19.07
2018-09-05T00:24:03.396Z,16.03
2018-09-05T00:26:31.542Z,19.50
2018-09-05T00:28:59.707Z,17.27
2018-09-05T00:31:27.919Z,16.07
2018-09-05T00:33:56.079Z,16.23
2018-09-05T00:36:24.252Z,21.40
2018-09-05T00:38:52.410Z,19.23
2018-09-05T00:41:20.541Z,21.27
2018-09-05T00:43:48.750Z,23.77
2018-09-05T00:46:16.917Z,18.93
2018-09-05T00:48:45.091Z,18.33
2018-09-05T00:51:13.237Z,21.17
2018-09-05T00:53:41.382Z,17.23
2018-09-05T00:56:09.550Z,17.43
2018-09-05T00:58:37.702Z,18.60
2018-09-05T01:01:05.934Z,19.03
2018-09-05T01:03:34.116Z,19.83
2018-09-05T01:06:02.274Z,17.93
2018-09-05T01:08:30.529Z,21.10
2018-09-05T01:10:58.701Z,17.67
2018-09-05T01:13:26.868Z,17.20
2018-09-05T01:15:55.046Z,19.53
2018-09-05T01:18:23.202Z,19.80
2018-09-05T01:20:51.400Z,18.67
2018-09-05T01:23:19.574Z,17.97
2018-09-05T01:25:47.747Z,17.60
2018-09-05T01:28:15.917Z,19.13
2018-09-05T01:30:44.080Z,16.00
2018-09-05T01:33:12.266Z,16.23
2018-09-05T01:35:40.425Z,18.33
2018-09-05T01:38:08.610Z,17.53
2018-09-05T01:40:36.806Z,17.73
2018-09-05T01:43:05.080Z,16.03
2018-09-05T01:45:33.290Z,20.17
2018-09-05T01:48:01.460Z,19.40
2018-09-05T01:50:35.087Z,16.97
2018-09-05T01:53:03.278Z,19.30
2018-09-05T01:55:31.430Z,17.27
2018-09-05T01:57:59.602Z,17.90
2018-09-05T02:00:33.179Z,19.00
2018-09-05T02:03:01.629Z,18.53
2018-09-05T02:05:29.896Z,21.13
2018-09-05T02:07:58.334Z,21.20
2018-09-05T02:10:26.490Z,21.47
2018-09-05T02:12:54.676Z,20.67
2018-09-05T02:15:22.842Z,22.37
2018-09-05T02:17:51.006Z,17.27
2018-09-05T02:20:19.179Z,18.53
2018-09-05T02:23:20.225Z,15.70
2018-09-05T02:25:48.393Z,20.67
2018-09-05T02:28:16.552Z,18.60
2018-09-05T02:30:44.714Z,20.60
2018-09-05T02:33:12.874Z,19.03
2018-09-05T02:35:41.037Z,19.97
2018-09-05T02:38:09.200Z,21.57
2018-09-05T02:40:37.384Z,20.87
2018-09-05T02:43:05.641Z,20.47
2018-09-05T02:45:33.805Z,24.63
2018-09-05T02:48:01.946Z,21.70
2018-09-05T02:50:30.111Z,19.63
2018-09-05T02:52:58.269Z,19.93
2018-09-05T02:56:03.634Z,18.93
2018-09-05T02:58:33.228Z,21.37
2018-09-05T03:01:01.384Z,22.03
2018-09-05T03:03:29.594Z,23.03
2018-09-05T03:05:58.200Z,22.30
2018-09-05T03:08:26.349Z,21.43
2018-09-05T03:10:54.510Z,19.50
2018-09-05T03:13:23.021Z,23.63
2018-09-05T03:15:51.178Z,23.40
2018-09-05T03:18:19.358Z,21.27
2018-09-05T03:20:47.502Z,23.77
2018-09-05T03:23:15.633Z,20.83
2018-09-05T03:25:43.809Z,24.93
2018-09-05T03:28:11.959Z,23.00
2018-09-05T03:30:40.556Z,20.73
2018-09-05T03:33:08.727Z,21.30
2018-09-05T03:35:36.848Z,20.47
2018-09-05T03:38:05.002Z,21.07
2018-09-05T03:40:33.153Z,18.23
2018-09-05T03:43:01.283Z,20.30
2018-09-05T03:45:29.425Z,18.23
2018-09-05T03:47:57.569Z,17.70
2018-09-05T03:50:25.714Z,22.47
2018-09-05T03:52:53.860Z,20.33
2018-09-05T03:55:22.003Z,19.50
2018-09-05T03:57:50.142Z,20.10
2018-09-05T04:00:18.325Z,18.00
2018-09-05T04:02:46.461Z,18.10
2018-09-05T04:05:14.657Z,18.70
2018-09-05T04:07:42.802Z,18.80
2018-09-05T04:10:15.996Z,19.40
2018-09-05T04:12:44.126Z,22.63
2018-09-05T04:15:12.325Z,24.60
2018-09-05T04:17:40.477Z,18.33
2018-09-05T04:20:09.250Z,21.13
2018-09-05T04:22:37.405Z,21.50
2018-09-05T04:25:05.537Z,23.43
2018-09-05T04:27:33.713Z,22.27
2018-09-05T04:30:01.853Z,23.60
2018-09-05T04:32:29.984Z,20.90
2018-09-05T04:34:58.187Z,20.40
2018-09-05T04:37:26.330Z,22.23
2018-09-05T04:39:54.475Z,21.33
2018-09-05T04:42:22.626Z,20.93
2018-09-05T04:44:50.770Z,19.43
2018-09-05T04:47:18.946Z,20.67
2018-09-05T04:49:47.089Z,20.60
2018-09-05T04:52:15.252Z,20.47
2018-09-05T04:54:43.379Z,24.70
2018-09-05T04:57:11.541Z,20.37
2018-09-05T04:59:39.678Z,23.83
2018-09-05T05:02:07.813Z,28.77
2018-09-05T05:04:35.962Z,28.93
2018-09-05T05:07:04.089Z,37.77
2018-09-05T05:09:32.318Z,29.17
2018-09-05T05:12:00.503Z,34.77
2018-09-05T05:14:35.274Z,28.73
2018-09-05T05:17:03.517Z,27.20
2018-09-05T05:19:31.660Z,28.97
2018-09-05T05:21:59.799Z,26.00
2018-09-05T05:24:27.930Z,25.87
2018-09-05T05:26:56.074Z,24.67
2018-09-05T05:29:24.218Z,23.17
2018-09-05T05:31:52.361Z,23.40
2018-09-05T05:34:20.515Z,24.37
2018-09-05T05:36:48.685Z,25.87
2018-09-05T05:39:16.841Z,22.47
2018-09-05T05:41:44.994Z,21.30
2018-09-05T05:44:13.174Z,22.53
2018-09-05T05:46:41.406Z,20.30
2018-09-05T05:49:09.500Z,22.87
2018-09-05T05:51:37.670Z,22.37
2018-09-05T05:54:05.882Z,22.87
2018-09-05T05:56:34.054Z,23.30
2018-09-05T05:59:02.216Z,20.80
2018-09-05T06:01:30.384Z,20.93
2018-09-05T06:03:58.610Z,18.93
2018-09-05T06:06:26.834Z,21.77
2018-09-05T06:08:54.930Z,21.17
2018-09-05T06:11:23.108Z,22.20
2018-09-05T06:13:51.274Z,23.23
2018-09-05T06:16:19.428Z,23.50
2018-09-05T06:18:47.597Z,20.80
2018-09-05T06:21:15.754Z,22.00
2018-09-05T06:23:43.936Z,21.77
2018-09-05T06:26:12.078Z,21.37
2018-09-05T06:28:40.250Z,21.53
2018-09-05T06:31:08.506Z,19.63
2018-09-05T06:33:36.639Z,21.87
2018-09-05T06:36:04.797Z,20.40
2018-09-05T06:38:32.971Z,20.87
2018-09-05T06:41:01.134Z,22.77
2018-09-05T06:43:29.293Z,21.60
2018-09-05T06:45:57.462Z,25.50
2018-09-05T06:48:25.645Z,20.50
2018-09-05T06:50:59.365Z,23.97
2018-09-05T06:53:27.529Z,21.77
2018-09-05T06:55:55.677Z,20.60
2018-09-05T06:58:23.944Z,22.10
2018-09-05T07:00:52.162Z,19.97
2018-09-05T07:03:20.750Z,18.80
2018-09-05T07:05:48.994Z,22.27
2018-09-05T07:08:17.176Z,22.70
2018-09-05T07:10:45.334Z,21.03
2018-09-05T07:13:13.527Z,22.53
2018-09-05T07:15:41.763Z,23.17
2018-09-05T07:18:09.905Z,22.00
2018-09-05T07:20:38.102Z,24.57
2018-09-05T07:23:06.486Z,20.97
2018-09-05T07:25:34.673Z,23.03
2018-09-05T07:28:02.837Z,23.23
2018-09-05T07:30:31.023Z,20.47
2018-09-05T07:32:59.252Z,21.77
2018-09-05T07:35:27.544Z,22.33
2018-09-05T07:37:55.666Z,23.63
2018-09-05T07:40:23.847Z,23.73
2018-09-05T07:42:52.079Z,20.00
2018-09-05T07:45:20.306Z,18.70
2018-09-05T07:47:48.470Z,18.57
2018-09-05T07:50:16.653Z,22.73
2018-09-05T07:52:44.820Z,23.60
2018-09-05T07:55:13.036Z,18.93
2018-09-05T07:57:41.216Z,18.57
2018-09-05T08:00:09.424Z,20.20
2018-09-05T08:02:37.591Z,22.50
2018-09-05T08:05:05.766Z,22.47
2018-09-05T08:07:33.950Z,19.33
2018-09-05T08:10:02.183Z,20.23
2018-09-05T08:12:30.377Z,23.53
2018-09-05T08:14:58.590Z,21.50
2018-09-05T08:17:26.754Z,21.57
2018-09-05T08:19:54.951Z,20.57
2018-09-05T08:22:23.113Z,19.17
2018-09-05T08:24:51.502Z,20.20
2018-09-05T08:27:22.365Z,20.77
2018-09-05T08:29:51.120Z,23.20
2018-09-05T08:32:19.302Z,34.27
2018-09-05T08:34:47.497Z,32.57
2018-09-05T08:37:15.988Z,30.27
2018-09-05T08:39:43.970Z,31.03
2018-09-05T08:42:12.177Z,33.73
2018-09-05T08:44:40.421Z,27.33
2018-09-05T08:47:08.486Z,28.27
2018-09-05T08:49:36.645Z,31.47
2018-09-05T08:52:04.830Z,29.80
2018-09-05T08:54:32.991Z,37.13
2018-09-05T08:57:01.146Z,35.87
2018-09-05T08:59:29.314Z,35.27
2018-09-05T09:01:57.497Z,37.73
2018-09-05T09:04:25.691Z,33.33
2018-09-05T09:06:53.970Z,33.20
2018-09-05T09:09:22.151Z,35.47
2018-09-05T09:11:50.326Z,32.80
2018-09-05T09:14:18.558Z,32.10
2018-09-05T09:16:46.733Z,32.03
2018-09-05T09:19:14.890Z,28.60
2018-09-05T09:21:43.046Z,28.23
2018-09-05T09:24:11.222Z,29.67
2018-09-05T09:26:39.398Z,28.37
2018-09-05T09:29:07.564Z,23.60
2018-09-05T09:31:35.746Z,19.60
2018-09-05T09:34:03.914Z,20.57
2018-09-05T09:36:32.084Z,18.97
2018-09-05T09:39:00.232Z,17.57
2018-09-05T09:41:28.371Z,23.90
2018-09-05T09:43:56.517Z,19.57
2018-09-05T09:46:24.693Z,20.13
2018-09-05T09:48:52.895Z,22.90
2018-09-05T09:51:22.689Z,18.63
2018-09-05T09:53:51.595Z,17.60
2018-09-05T09:56:19.746Z,17.47
2018-09-05T09:58:47.905Z,14.97
2018-09-05T10:01:21.417Z,17.20
2018-09-05T10:03:54.974Z,17.47
2018-09-05T10:06:28.433Z,17.03
2018-09-05T10:09:01.895Z,17.77
2018-09-05T10:11:35.426Z,16.60
2018-09-05T10:14:08.877Z,18.27
2018-09-05T10:16:42.242Z,16.20
2018-09-05T10:19:11.322Z,16.03
2018-09-05T10:21:39.502Z,17.23
2018-09-05T10:24:07.662Z,14.50
2018-09-05T10:26:35.859Z,14.17
2018-09-05T10:29:04.107Z,16.07
2018-09-05T10:31:32.260Z,16.50
2018-09-05T10:34:00.407Z,19.00
2018-09-05T10:36:28.546Z,17.37
2018-09-05T10:38:56.690Z,14.27
2018-09-05T10:41:24.845Z,13.30
2018-09-05T10:43:53.018Z,13.43
2018-09-05T10:46:21.169Z,14.90
2018-09-05T10:48:49.316Z,14.23
2018-09-05T10:51:17.455Z,14.70
2018-09-05T10:53:45.614Z,15.93
2018-09-05T10:56:13.762Z,15.90
2018-09-05T10:58:41.928Z,14.10
2018-09-05T11:01:10.087Z,13.97
2018-09-05T11:03:38.647Z,20.97
2018-09-05T11:06:06.790Z,20.60
2018-09-05T11:08:34.941Z,13.80
2018-09-05T11:11:03.072Z,13.97
2018-09-05T11:13:31.226Z,13.77
2018-09-05T11:15:59.379Z,12.50
2018-09-05T11:18:27.594Z,13.20
2018-09-05T11:20:55.730Z,14.00
2018-09-05T11:23:23.882Z,14.23
2018-09-05T11:25:52.026Z,15.07
2018-09-05T11:28:20.271Z,13.87
2018-09-05T11:30:48.433Z,15.97
2018-09-05T11:33:16.581Z,15.20
2018-09-05T11:35:44.743Z,13.00
2018-09-05T11:38:12.902Z,14.70
2018-09-05T11:40:41.043Z,14.63
2018-09-05T11:43:09.194Z,12.40
2018-09-05T11:45:37.350Z,12.70
2018-09-05T11:48:05.506Z,12.57
2018-09-05T11:50:33.666Z,13.90
2018-09-05T11:53:01.817Z,13.50
2018-09-05T11:55:29.955Z,12.23
2018-09-05T11:57:58.118Z,13.20
2018-09-05T12:00:26.289Z,13.47
2018-09-05T12:02:54.418Z,13.97
2018-09-05T12:05:22.774Z,12.90
2018-09-05T12:07:50.914Z,15.87
2018-09-05T12:10:19.176Z,13.00
2018-09-05T12:12:47.313Z,15.50
2018-09-05T12:15:15.494Z,15.93
2018-09-05T12:17:43.631Z,15.03
2018-09-05T12:20:11.821Z,14.87
2018-09-05T12:22:39.962Z,14.73
2018-09-05T12:25:08.179Z,14.80
2018-09-05T12:27:36.319Z,13.83
2018-09-05T12:30:04.494Z,14.07
2018-09-05T12:32:32.644Z,14.03
2018-09-05T12:35:00.790Z,13.63
2018-09-05T12:37:28.946Z,13.83
2018-09-05T12:39:57.070Z,14.07
2018-09-05T12:42:25.222Z,13.93
2018-09-05T12:44:53.368Z,13.80
2018-09-05T12:47:21.502Z,13.87
2018-09-05T12:49:49.701Z,13.07
2018-09-05T12:52:17.838Z,14.03
2018-09-05T12:54:46.009Z,12.13
2018-09-05T12:57:14.178Z,12.57
2018-09-05T12:59:42.311Z,13.13
2018-09-05T13:02:10.487Z,11.70
2018-09-05T13:04:38.619Z,12.13
2018-09-05T13:07:06.770Z,11.40
2018-09-05T13:09:34.896Z,11.90
2018-09-05T13:12:03.042Z,12.03
2018-09-05T13:14:31.180Z,12.87
2018-09-05T13:16:59.319Z,11.40
2018-09-05T13:19:27.450Z,13.00
2018-09-05T13:21:55.586Z,21.30
2018-09-05T13:24:23.731Z,12.40
2018-09-05T13:26:51.938Z,12.00
2018-09-05T13:29:20.082Z,11.60
2018-09-05T13:31:48.246Z,12.27
2018-09-05T13:34:16.368Z,13.57
2018-09-05T13:36:44.545Z,13.50
2018-09-05T13:39:12.690Z,12.93
2018-09-05T13:41:41.186Z,12.40
2018-09-05T13:44:09.384Z,13.10
2018-09-05T13:46:37.748Z,13.37
2018-09-05T13:49:05.965Z,12.07
2018-09-05T13:51:34.137Z,12.17
2018-09-05T13:54:02.291Z,11.50
2018-09-05T13:56:30.547Z,11.73
2018-09-05T13:58:58.661Z,11.70
2018-09-05T14:01:26.816Z,12.20
2018-09-05T14:03:54.997Z,11.03
2018-09-05T14:06:23.234Z,11.53
2018-09-05T14:08:51.402Z,11.63
2018-09-05T14:11:19.571Z,12.47
2018-09-05T14:13:47.748Z,11.40
2018-09-05T14:16:15.885Z,11.57
2018-09-05T14:18:44.074Z,13.17
2018-09-05T14:21:12.238Z,13.50
2018-09-05T14:23:40.396Z,10.63
2018-09-05T14:26:08.565Z,12.83
2018-09-05T14:28:36.743Z,10.83
2018-09-05T14:31:05.020Z,11.73
2018-09-05T14:33:33.168Z,11.00
2018-09-05T14:36:01.314Z,10.83
2018-09-05T14:38:29.477Z,10.23
2018-09-05T14:40:57.644Z,10.43
2018-09-05T14:43:25.821Z,11.80
2018-09-05T14:45:54.100Z,9.80
2018-09-05T14:48:22.305Z,9.97
2018-09-05T14:50:50.446Z,9.73
2018-09-05T14:53:18.600Z,10.60
2018-09-05T14:55:46.761Z,9.83
2018-09-05T14:58:14.923Z,12.07
2018-09-05T15:00:43.090Z,12.13
2018-09-05T15:03:11.307Z,13.80
2018-09-05T15:05:39.474Z,13.70
2018-09-05T15:08:07.617Z,12.50
2018-09-05T15:10:35.775Z,14.87
2018-09-05T15:13:03.922Z,11.60
2018-09-05T15:15:32.086Z,15.30
2018-09-05T15:18:00.237Z,11.43
2018-09-05T15:20:28.397Z,12.07
2018-09-05T15:22:56.555Z,12.13
2018-09-05T15:25:24.711Z,12.07
2018-09-05T15:27:52.858Z,12.97
2018-09-05T15:30:21.014Z,12.87
2018-09-05T15:32:49.174Z,11.80
2018-09-05T15:35:17.354Z,14.13
2018-09-05T15:37:45.508Z,15.07
2018-09-05T15:40:13.671Z,13.77
2018-09-05T15:42:41.820Z,13.33
2018-09-05T15:45:09.982Z,15.33
2018-09-05T15:47:38.138Z,12.27
2018-09-05T15:50:06.310Z,12.43
2018-09-05T15:52:34.461Z,22.77
2018-09-05T15:55:02.613Z,12.47
2018-09-05T15:57:30.825Z,14.77
2018-09-05T15:59:58.946Z,12.97
2018-09-05T16:02:27.109Z,12.30
2018-09-05T16:04:55.267Z,11.23
2018-09-05T16:07:23.413Z,14.77
2018-09-05T16:09:51.646Z,11.97
2018-09-05T16:12:19.810Z,14.77
2018-09-05T16:14:47.977Z,15.90
2018-09-05T16:17:16.131Z,12.63
2018-09-05T16:19:44.295Z,12.67
2018-09-05T16:22:12.495Z,14.40
2018-09-05T16:24:40.713Z,16.70
2018-09-05T16:27:08.909Z,13.23
2018-09-05T16:29:37.074Z,13.70
2018-09-05T16:32:05.275Z,16.07
2018-09-05T16:34:33.412Z,13.13
2018-09-05T16:37:01.573Z,12.93
2018-09-05T16:39:29.745Z,13.07
2018-09-05T16:41:57.893Z,12.97
2018-09-05T16:44:26.042Z,12.67
2018-09-05T16:46:54.213Z,14.57
2018-09-05T16:49:22.409Z,12.43
2018-09-05T16:51:50.569Z,12.37
2018-09-05T16:54:18.721Z,12.33
2018-09-05T16:56:46.891Z,12.60
2018-09-05T16:59:15.043Z,12.57
2018-09-05T17:01:43.202Z,13.47
2018-09-05T17:04:11.359Z,14.60
2018-09-05T17:06:39.543Z,12.97
2018-09-05T17:09:10.158Z,13.10
2018-09-05T17:11:38.349Z,13.10
2018-09-05T17:14:06.527Z,14.27
2018-09-05T17:16:34.689Z,13.33
2018-09-05T17:19:02.858Z,13.83
2018-09-05T17:21:31.005Z,15.23
2018-09-05T17:23:59.157Z,13.00
2018-09-05T17:26:27.325Z,13.70
2018-09-05T17:28:55.498Z,14.50
2018-09-05T17:31:23.668Z,15.77
2018-09-05T17:33:51.877Z,13.57
2018-09-05T17:36:20.034Z,13.43
2018-09-05T17:38:48.182Z,13.77
2018-09-05T17:41:16.350Z,14.13
2018-09-05T17:43:44.509Z,14.17
2018-09-05T17:46:12.653Z,15.13
2018-09-05T17:48:40.813Z,14.20
2018-09-05T17:51:09.114Z,14.33
2018-09-05T17:53:38.416Z,14.10
2018-09-05T17:56:06.522Z,14.50
2018-09-05T17:58:34.712Z,17.63
2018-09-05T18:01:04.570Z,16.60
2018-09-05T18:03:32.730Z,15.10
2018-09-05T18:06:00.870Z,17.10
2018-09-05T18:08:29.037Z,16.67
2018-09-05T18:10:57.175Z,16.10
2018-09-05T18:13:25.349Z,19.13
2018-09-05T18:15:53.488Z,15.40
2018-09-05T18:18:21.642Z,15.63
2018-09-05T18:20:49.832Z,14.63
2018-09-05T18:23:17.955Z,15.03
2018-09-05T18:25:46.109Z,14.70
2018-09-05T18:28:14.265Z,14.63
2018-09-05T18:30:42.480Z,13.97
2018-09-05T18:33:10.679Z,16.07
2018-09-05T18:35:38.810Z,15.13
2018-09-05T18:38:06.980Z,15.77
2018-09-05T18:40:35.084Z,15.07
2018-09-05T18:43:03.218Z,16.13
2018-09-05T18:45:31.350Z,16.93
2018-09-05T18:47:59.485Z,18.60
2018-09-05T18:50:27.610Z,17.50
2018-09-05T18:53:01.172Z,19.00
2018-09-05T18:55:29.296Z,17.17
2018-09-05T18:57:57.433Z,17.13
2018-09-05T19:00:25.659Z,16.37
2018-09-05T19:02:53.792Z,18.13
2018-09-05T19:05:21.920Z,18.20
2018-09-05T19:07:50.057Z,17.93
2018-09-05T19:10:18.201Z,17.23
2018-09-05T19:12:46.426Z,17.93
2018-09-05T19:15:14.557Z,20.10
2018-09-05T19:17:42.678Z,22.53
2018-09-05T19:20:10.815Z,21.93
2018-09-05T19:22:39.496Z,22.73
2018-09-05T19:25:07.630Z,19.27
2018-09-05T19:27:35.793Z,17.93
2018-09-05T19:30:03.925Z,21.57
2018-09-05T19:32:32.069Z,23.90
2018-09-05T19:35:00.210Z,18.97
2018-09-05T19:37:28.346Z,18.57
2018-09-05T19:39:56.494Z,19.67
2018-09-05T19:42:24.633Z,20.67
2018-09-05T19:44:52.758Z,22.07
2018-09-05T19:47:20.874Z,19.10
2018-09-05T19:49:49.005Z,18.77
2018-09-05T19:52:17.218Z,22.73
2018-09-05T19:54:45.451Z,18.70
2018-09-05T19:57:13.564Z,19.23
2018-09-05T19:59:41.741Z,21.00
2018-09-05T20:02:09.912Z,19.77
2018-09-05T20:04:38.042Z,21.37
2018-09-05T20:07:12.976Z,22.37
2018-09-05T20:09:41.130Z,21.77
2018-09-05T20:12:09.277Z,23.43
2018-09-05T20:14:37.414Z,21.83
2018-09-05T20:17:05.561Z,20.07
2018-09-05T20:19:33.679Z,23.50
2018-09-05T20:22:01.810Z,21.07
2018-09-05T20:24:29.953Z,22.53
2018-09-05T20:26:58.053Z,21.17
2018-09-05T20:29:26.433Z,24.17
2018-09-05T20:31:54.662Z,23.00
2018-09-05T20:34:22.800Z,23.43
2018-09-05T20:36:50.945Z,20.70
2018-09-05T20:39:19.190Z,21.53
2018-09-05T20:41:47.342Z,20.37
2018-09-05T20:44:15.482Z,27.77
2018-09-05T20:46:43.638Z,24.17
2018-09-05T20:49:11.813Z,20.23
2018-09-05T20:51:39.963Z,22.37
2018-09-05T20:54:08.102Z,20.93
2018-09-05T20:56:36.322Z,23.93
2018-09-05T20:59:04.563Z,18.77
2018-09-05T21:01:32.882Z,21.80
2018-09-05T21:04:01.126Z,20.33
2018-09-05T21:06:29.365Z,21.50
2018-09-05T21:08:57.514Z,18.73
2018-09-05T21:11:25.753Z,20.03
2018-09-05T21:13:53.963Z,20.77
2018-09-05T21:16:22.102Z,19.13
2018-09-05T21:18:50.530Z,18.97
2018-09-05T21:21:18.685Z,18.37
2018-09-05T21:23:46.818Z,19.07
2018-09-05T21:26:14.962Z,18.33
2018-09-05T21:28:43.110Z,20.30
2018-09-05T21:31:11.256Z,22.10
2018-09-05T21:33:39.394Z,20.50
2018-09-05T21:36:07.611Z,26.27
2018-09-05T21:38:35.707Z,22.17
2018-09-05T21:41:03.897Z,22.40
2018-09-05T21:43:32.053Z,21.60
2018-09-05T21:46:00.202Z,38.03
2018-09-05T21:48:28.422Z,30.07
2018-09-05T21:50:56.579Z,25.40
2018-09-05T21:53:24.713Z,25.93
2018-09-05T21:55:52.861Z,24.80
2018-09-05T21:58:21.022Z,23.83
2018-09-05T22:00:49.201Z,26.27
2018-09-05T22:03:17.317Z,22.13
2018-09-05T22:05:45.470Z,18.83
2018-09-05T22:08:13.615Z,20.07
2018-09-05T22:10:41.755Z,24.13
2018-09-05T22:13:16.673Z,23.00
2018-09-05T22:15:46.329Z,23.73
2018-09-05T22:18:15.055Z,23.13
2018-09-05T22:20:43.186Z,23.43
2018-09-05T22:23:11.382Z,24.93
2018-09-05T22:25:39.514Z,20.47
2018-09-05T22:28:07.657Z,20.00
2018-09-05T22:30:35.792Z,24.33
2018-09-05T22:33:04.201Z,23.00
